createdAt,value
2023-03-22T00:01:24.085Z,13.91
2023-03-22T00:03:52.686Z,13.89
2023-03-22T00:06:20.509Z,13.84
2023-03-22T00:08:52.347Z,13.78
2023-03-22T00:11:21.434Z,13.81
2023-03-22T00:13:48.840Z,13.84
2023-03-22T00:16:17.602Z,13.81
2023-03-22T00:18:45.031Z,13.79
2023-03-22T00:21:14.829Z,13.71
2023-03-22T00:23:42.817Z,13.68
2023-03-22T00:26:11.867Z,13.71
2023-03-22T00:28:39.987Z,13.72
2023-03-22T00:31:07.931Z,13.63
2023-03-22T00:33:36.447Z,13.64
2023-03-22T00:36:09.390Z,13.57
2023-03-22T00:38:45.176Z,13.55
2023-03-22T00:41:14.402Z,13.56
2023-03-22T00:43:42.372Z,13.56
2023-03-22T00:46:11.333Z,13.54
2023-03-22T00:48:39.068Z,13.46
2023-03-22T00:51:07.599Z,13.45
2023-03-22T00:53:36.636Z,13.43
2023-03-22T00:56:06.117Z,13.52
2023-03-22T00:58:43.550Z,13.38
2023-03-22T01:01:14.848Z,13.35
2023-03-22T01:03:43.824Z,13.31
2023-03-22T01:06:14.933Z,13.31
2023-03-22T01:08:42.251Z,13.33
2023-03-22T01:11:10.131Z,13.25
2023-03-22T01:13:38.763Z,13.24
2023-03-22T01:16:07.099Z,13.23
2023-03-22T01:18:35.311Z,13.25
2023-03-22T01:21:03.776Z,13.30
2023-03-22T01:23:31.977Z,13.22
2023-03-22T01:26:00.125Z,13.23
2023-03-22T01:28:28.672Z,13.27
2023-03-22T01:31:00.620Z,13.25
2023-03-22T01:33:27.947Z,13.29
2023-03-22T01:35:55.515Z,13.22
2023-03-22T01:38:23.111Z,13.21
2023-03-22T01:40:55.807Z,13.17
2023-03-22T01:43:23.202Z,13.18
2023-03-22T01:45:52.034Z,13.11
2023-03-22T01:48:49.096Z,13.16
2023-03-22T01:51:25.426Z,13.15
2023-03-22T01:54:09.505Z,13.18
2023-03-22T01:56:40.697Z,13.12
2023-03-22T01:59:14.647Z,13.12
2023-03-22T02:02:05.294Z,12.91
2023-03-22T02:04:35.944Z,12.91
2023-03-22T02:07:10.244Z,12.92
2023-03-22T02:09:46.632Z,12.91
2023-03-22T02:12:50.644Z,12.82
2023-03-22T02:15:49.339Z,12.71
2023-03-22T02:18:49.072Z,12.81
2023-03-22T02:21:45.523Z,12.86
2023-03-22T02:24:18.443Z,12.84
2023-03-22T02:26:47.198Z,12.79
2023-03-22T02:29:30.075Z,12.79
2023-03-22T02:32:25.055Z,12.79
2023-03-22T02:35:20.651Z,12.77
2023-03-22T02:37:51.178Z,12.77
2023-03-22T02:40:39.437Z,12.79
2023-03-22T02:43:34.253Z,12.76
2023-03-22T02:46:10.302Z,12.69
2023-03-22T02:48:50.796Z,12.62
2023-03-22T02:51:25.821Z,12.55
2023-03-22T02:53:59.028Z,12.53
2023-03-22T02:56:34.670Z,12.46
2023-03-22T02:59:06.266Z,12.37
2023-03-22T03:01:39.613Z,12.51
2023-03-22T03:04:12.853Z,12.46
2023-03-22T03:06:46.220Z,12.47
2023-03-22T03:09:18.185Z,12.56
2023-03-22T03:11:47.872Z,12.52
2023-03-22T03:14:31.676Z,12.41
2023-03-22T03:17:13.121Z,12.41
2023-03-22T03:20:11.573Z,12.27
2023-03-22T03:22:52.323Z,12.43
2023-03-22T03:25:34.648Z,12.46
2023-03-22T03:28:23.061Z,12.46
2023-03-22T03:30:59.250Z,12.38
2023-03-22T03:33:29.017Z,12.31
2023-03-22T03:36:01.943Z,12.23
2023-03-22T03:38:33.597Z,12.20
2023-03-22T03:41:04.359Z,12.09
2023-03-22T03:43:34.275Z,11.95
2023-03-22T03:46:02.361Z,11.92
2023-03-22T03:48:33.402Z,11.89
2023-03-22T03:51:02.146Z,11.92
2023-03-22T03:53:30.537Z,11.80
2023-03-22T03:55:58.073Z,11.96
2023-03-22T03:58:30.493Z,12.06
2023-03-22T04:00:57.958Z,12.03
2023-03-22T04:03:50.779Z,12.01
2023-03-22T04:06:41.734Z,12.08
2023-03-22T04:09:14.314Z,12.08
2023-03-22T04:11:45.571Z,12.10
2023-03-22T04:14:14.530Z,12.10
2023-03-22T04:16:41.934Z,12.04
2023-03-22T04:19:13.215Z,11.93
2023-03-22T04:21:40.721Z,11.93
2023-03-22T04:24:10.010Z,11.88
2023-03-22T04:26:41.322Z,11.90
2023-03-22T04:29:22.011Z,11.67
2023-03-22T04:31:53.760Z,11.65
2023-03-22T04:34:29.865Z,11.63
2023-03-22T04:37:02.661Z,11.73
2023-03-22T04:39:35.630Z,11.67
2023-03-22T04:42:32.581Z,11.75
2023-03-22T04:45:12.069Z,11.68
2023-03-22T04:47:41.208Z,11.57
2023-03-22T04:50:09.377Z,11.48
2023-03-22T04:53:03.190Z,11.58
2023-03-22T04:55:34.195Z,11.66
2023-03-22T04:58:02.208Z,11.66
2023-03-22T05:00:30.322Z,11.59
2023-03-22T05:02:58.480Z,11.59
2023-03-22T05:05:40.940Z,11.44
2023-03-22T05:08:08.568Z,11.35
2023-03-22T05:10:40.530Z,11.39
2023-03-22T05:13:08.247Z,11.56
2023-03-22T05:15:41.858Z,11.57
2023-03-22T05:18:10.352Z,11.55
2023-03-22T05:20:38.891Z,11.62
2023-03-22T05:23:13.467Z,11.63
2023-03-22T05:25:45.261Z,11.64
2023-03-22T05:28:19.506Z,11.72
2023-03-22T05:30:57.042Z,11.71
2023-03-22T05:33:54.289Z,11.67
2023-03-22T05:36:24.442Z,11.79
2023-03-22T05:39:27.167Z,11.88
2023-03-22T05:41:55.352Z,11.85
2023-03-22T05:44:23.041Z,11.88
2023-03-22T05:47:00.103Z,12.01
2023-03-22T05:49:34.219Z,11.93
2023-03-22T05:52:04.467Z,11.98
2023-03-22T05:54:46.312Z,12.18
2023-03-22T05:57:14.736Z,12.50
2023-03-22T05:59:42.164Z,13.06
2023-03-22T06:02:16.003Z,13.46
2023-03-22T06:04:43.402Z,13.97
2023-03-22T06:07:16.181Z,13.79
2023-03-22T06:09:49.458Z,13.41
2023-03-22T06:12:24.800Z,13.08
2023-03-22T06:15:14.863Z,12.87
2023-03-22T06:17:57.971Z,12.78
2023-03-22T06:20:28.547Z,12.89
2023-03-22T06:23:02.289Z,13.07
2023-03-22T06:25:29.669Z,13.21
2023-03-22T06:27:57.096Z,13.52
2023-03-22T06:30:25.697Z,13.63
2023-03-22T06:33:10.546Z,14.12
2023-03-22T06:35:41.876Z,15.10
2023-03-22T06:38:13.381Z,15.98
2023-03-22T06:40:41.098Z,16.44
2023-03-22T06:43:09.697Z,17.24
2023-03-22T06:45:40.428Z,17.46
2023-03-22T06:48:08.245Z,18.18
2023-03-22T06:50:48.314Z,18.49
2023-03-22T06:53:20.216Z,19.31
2023-03-22T06:55:48.075Z,19.75
2023-03-22T06:58:19.184Z,19.99
2023-03-22T07:00:46.572Z,19.99
2023-03-22T07:03:15.292Z,19.63
2023-03-22T07:06:03.689Z,19.51
2023-03-22T07:08:34.521Z,18.92
2023-03-22T07:11:04.063Z,19.22
2023-03-22T07:13:32.505Z,19.15
2023-03-22T07:16:04.183Z,19.09
2023-03-22T07:18:36.740Z,19.24
2023-03-22T07:21:04.276Z,19.44
2023-03-22T07:23:32.301Z,19.84
2023-03-22T07:26:06.578Z,20.35
2023-03-22T07:28:36.229Z,21.11
2023-03-22T07:31:09.930Z,21.98
2023-03-22T07:33:46.476Z,22.75
2023-03-22T07:36:14.678Z,23.04
2023-03-22T07:38:42.146Z,23.31
2023-03-22T07:41:15.408Z,24.04
2023-03-22T07:44:00.200Z,24.85
2023-03-22T07:46:40.580Z,24.86
2023-03-22T07:49:22.149Z,24.80
2023-03-22T07:51:49.562Z,25.03
2023-03-22T07:54:32.121Z,25.10
2023-03-22T07:57:02.615Z,25.08
2023-03-22T07:59:31.434Z,25.34
2023-03-22T08:01:59.761Z,25.70
2023-03-22T08:04:32.043Z,26.18
2023-03-22T08:07:04.645Z,26.04
2023-03-22T08:09:32.362Z,25.97
2023-03-22T08:11:59.755Z,26.26
2023-03-22T08:14:36.038Z,26.35
2023-03-22T08:17:07.061Z,26.87
2023-03-22T08:19:34.910Z,26.59
2023-03-22T08:22:03.365Z,26.80
2023-03-22T08:24:54.101Z,27.53
2023-03-22T08:27:27.387Z,27.73
2023-03-22T08:29:55.252Z,27.77
2023-03-22T08:32:22.618Z,28.11
2023-03-22T08:34:50.028Z,28.33
2023-03-22T08:37:20.264Z,28.28
2023-03-22T08:39:48.480Z,28.36
2023-03-22T08:42:19.019Z,27.91
2023-03-22T08:44:47.427Z,28.26
2023-03-22T08:47:15.497Z,28.24
2023-03-22T08:49:44.172Z,28.50
2023-03-22T08:52:17.678Z,29.63
2023-03-22T08:54:59.176Z,29.14
2023-03-22T08:57:50.287Z,28.78
2023-03-22T09:00:45.749Z,29.61
2023-03-22T09:03:30.448Z,29.06
2023-03-22T09:05:58.720Z,29.67
2023-03-22T09:08:29.329Z,28.38
2023-03-22T09:11:04.964Z,28.62
2023-03-22T09:13:32.391Z,28.76
2023-03-22T09:16:01.978Z,28.77
2023-03-22T09:18:32.416Z,27.74
2023-03-22T09:21:04.417Z,28.42
2023-03-22T09:23:42.055Z,27.90
2023-03-22T09:26:11.229Z,29.13
2023-03-22T09:28:39.306Z,28.75
2023-03-22T09:31:10.383Z,29.26
2023-03-22T09:33:41.392Z,29.01
2023-03-22T09:36:11.953Z,29.50
2023-03-22T09:38:41.372Z,28.15
2023-03-22T09:41:14.852Z,27.87
2023-03-22T09:43:57.244Z,26.99
2023-03-22T09:46:36.950Z,27.43
2023-03-22T09:49:50.473Z,28.45
2023-03-22T09:52:20.043Z,29.01
2023-03-22T09:54:47.621Z,29.34
2023-03-22T09:57:37.442Z,28.35
2023-03-22T10:00:52.534Z,29.01
2023-03-22T10:03:34.435Z,28.14
2023-03-22T10:06:18.963Z,28.56
2023-03-22T10:09:15.765Z,28.41
2023-03-22T10:11:52.353Z,28.98
2023-03-22T10:14:45.440Z,29.11
2023-03-22T10:17:17.415Z,28.99
2023-03-22T10:19:57.796Z,29.05
2023-03-22T10:22:30.931Z,28.78
2023-03-22T10:25:00.483Z,28.13
2023-03-22T10:27:30.284Z,29.09
2023-03-22T10:30:24.481Z,28.45
2023-03-22T10:33:03.332Z,28.16
2023-03-22T10:35:32.091Z,28.41
2023-03-22T10:38:03.813Z,28.61
2023-03-22T10:40:35.671Z,28.62
2023-03-22T10:43:28.117Z,28.68
2023-03-22T10:45:56.928Z,28.55
2023-03-22T10:48:35.332Z,28.41
2023-03-22T10:51:04.218Z,28.00
2023-03-22T10:53:40.867Z,28.14
2023-03-22T10:56:18.772Z,27.22
2023-03-22T10:58:47.938Z,27.83
2023-03-22T11:01:25.512Z,27.79
2023-03-22T11:04:08.042Z,28.14
2023-03-22T11:06:40.897Z,27.79
2023-03-22T11:09:15.815Z,26.57
2023-03-22T11:11:55.723Z,27.36
2023-03-22T11:14:37.053Z,27.52
2023-03-22T11:17:08.329Z,27.23
2023-03-22T11:19:42.082Z,27.55
2023-03-22T11:22:31.990Z,28.12
2023-03-22T11:25:00.875Z,28.22
2023-03-22T11:27:30.611Z,28.13
2023-03-22T11:30:20.119Z,27.49
2023-03-22T11:32:48.935Z,26.98
2023-03-22T11:35:27.572Z,27.78
2023-03-22T11:37:56.322Z,27.12
2023-03-22T11:40:29.281Z,26.87
2023-03-22T11:43:11.268Z,26.60
2023-03-22T11:45:42.862Z,27.10
2023-03-22T11:48:14.849Z,27.60
2023-03-22T11:50:44.578Z,26.56
2023-03-22T11:53:24.550Z,26.72
2023-03-22T11:55:55.705Z,26.88
2023-03-22T11:58:24.036Z,26.43
2023-03-22T12:00:53.636Z,26.02
2023-03-22T12:03:25.026Z,26.71
2023-03-22T12:05:53.358Z,26.32
2023-03-22T12:08:36.007Z,25.95
2023-03-22T12:11:11.038Z,25.69
2023-03-22T12:13:46.701Z,26.09
2023-03-22T12:16:22.977Z,26.29
2023-03-22T12:19:06.910Z,26.47
2023-03-22T12:21:34.826Z,26.37
2023-03-22T12:24:04.466Z,25.58
2023-03-22T12:26:33.655Z,26.26
2023-03-22T12:29:18.859Z,26.03
2023-03-22T12:32:00.044Z,26.23
2023-03-22T12:34:41.416Z,25.89
2023-03-22T12:37:15.052Z,25.68
2023-03-22T12:40:01.991Z,26.14
2023-03-22T12:42:47.550Z,26.15
2023-03-22T12:45:23.397Z,26.28
2023-03-22T12:48:23.744Z,25.65
2023-03-22T12:50:57.130Z,25.79
2023-03-22T12:53:42.616Z,26.18
2023-03-22T12:56:52.382Z,25.67
2023-03-22T12:59:28.641Z,25.67
2023-03-22T13:02:23.317Z,25.87
2023-03-22T13:04:55.865Z,25.54
2023-03-22T13:07:47.655Z,25.89
2023-03-22T13:10:30.066Z,26.23
2023-03-22T13:13:09.666Z,25.94
2023-03-22T13:15:42.111Z,25.95
2023-03-22T13:18:50.043Z,26.22
2023-03-22T13:21:22.806Z,25.82
2023-03-22T13:24:02.370Z,25.93
2023-03-22T13:26:55.244Z,25.88
2023-03-22T13:29:38.287Z,25.67
2023-03-22T13:32:29.919Z,25.93
2023-03-22T13:34:57.677Z,25.03
2023-03-22T13:37:30.234Z,25.52
2023-03-22T13:40:02.177Z,25.57
2023-03-22T13:42:38.775Z,25.06
2023-03-22T13:45:31.589Z,25.23
2023-03-22T13:48:12.418Z,25.74
2023-03-22T13:50:40.377Z,25.21
2023-03-22T13:53:21.548Z,25.45
2023-03-22T13:55:48.919Z,25.80
2023-03-22T13:58:38.198Z,25.14
2023-03-22T14:01:14.996Z,25.63
2023-03-22T14:03:46.149Z,25.65
2023-03-22T14:06:26.016Z,25.72
2023-03-22T14:09:02.063Z,25.79
2023-03-22T14:11:39.620Z,26.13
2023-03-22T14:14:12.501Z,25.87
2023-03-22T14:17:00.626Z,25.44
2023-03-22T14:19:32.765Z,25.77
